sensor_id;sensor_type;location;lat;lon;timestamp;pressure;altitude;pressure_sealevel;temperature;humidity
63556;BME280;49700;48.072;7.800;2022-09-09T00:02:20;99144.47;;;18.03;65.31
63556;BME280;49700;48.072;7.800;2022-09-09T00:07:47;99149.00;;;18.11;64.80
63556;BME280;49700;48.072;7.800;2022-09-09T00:13:02;99141.22;;;18.09;65.44
63556;BME280;49700;48.072;7.800;2022-09-09T00:15:38;99149.28;;;18.00;65.58
63556;BME280;49700;48.072;7.800;2022-09-09T00:23:28;99148.25;;;17.75;66.06
63556;BME280;49700;48.072;7.800;2022-09-09T00:25:59;99154.16;;;17.68;66.18
63556;BME280;49700;48.072;7.800;2022-09-09T00:28:28;99154.47;;;17.65;66.08
63556;BME280;49700;48.072;7.800;2022-09-09T00:33:48;99170.66;;;17.72;65.80
63556;BME280;49700;48.072;7.800;2022-09-09T00:36:18;99164.03;;;17.76;65.84
63556;BME280;49700;48.072;7.800;2022-09-09T00:38:49;99162.78;;;17.80;65.57
63556;BME280;49700;48.072;7.800;2022-09-09T00:41:37;99163.16;;;17.85;65.79
63556;BME280;49700;48.072;7.800;2022-09-09T00:44:23;99164.97;;;17.85;65.65
63556;BME280;49700;48.072;7.800;2022-09-09T00:50:00;99174.09;;;17.82;65.47
63556;BME280;49700;48.072;7.800;2022-09-09T00:55:15;99167.78;;;17.83;65.63
63556;BME280;49700;48.072;7.800;2022-09-09T00:57:41;99176.75;;;17.82;65.83
63556;BME280;49700;48.072;7.800;2022-09-09T01:00:26;99175.06;;;17.81;65.96
63556;BME280;49700;48.072;7.800;2022-09-09T01:08:00;99161.09;;;17.79;65.82
63556;BME280;49700;48.072;7.800;2022-09-09T01:10:51;99164.13;;;17.84;65.37
63556;BME280;49700;48.072;7.800;2022-09-09T01:13:33;99155.69;;;17.89;65.31
63556;BME280;49700;48.072;7.800;2022-09-09T01:16:08;99155.22;;;17.94;64.65
63556;BME280;49700;48.072;7.800;2022-09-09T01:18:41;99160.06;;;17.98;64.39
63556;BME280;49700;48.072;7.800;2022-09-09T01:21:39;99168.25;;;18.05;63.89
63556;BME280;49700;48.072;7.800;2022-09-09T01:27:13;99163.31;;;18.10;63.24
63556;BME280;49700;48.072;7.800;2022-09-09T01:29:41;99161.34;;;18.12;62.82
63556;BME280;49700;48.072;7.800;2022-09-09T01:32:37;99171.66;;;18.15;62.73
63556;BME280;49700;48.072;7.800;2022-09-09T01:35:03;99173.44;;;18.14;62.51
63556;BME280;49700;48.072;7.800;2022-09-09T01:37:29;99175.28;;;18.14;62.59
63556;BME280;49700;48.072;7.800;2022-09-09T01:39:55;99177.94;;;18.14;62.58
63556;BME280;49700;48.072;7.800;2022-09-09T01:42:20;99175.47;;;18.12;62.57
63556;BME280;49700;48.072;7.800;2022-09-09T01:44:46;99168.31;;;18.13;62.17
63556;BME280;49700;48.072;7.800;2022-09-09T01:47:11;99172.63;;;18.14;62.43
63556;BME280;49700;48.072;7.800;2022-09-09T01:50:02;99173.16;;;18.18;62.21
63556;BME280;49700;48.072;7.800;2022-09-09T01:52:30;99173.66;;;18.21;62.19
63556;BME280;49700;48.072;7.800;2022-09-09T01:54:56;99174.03;;;18.26;61.89
63556;BME280;49700;48.072;7.800;2022-09-09T01:57:28;99166.75;;;18.28;62.02
63556;BME280;49700;48.072;7.800;2022-09-09T02:00:08;99172.72;;;18.30;61.75
63556;BME280;49700;48.072;7.800;2022-09-09T02:03:00;99167.25;;;18.32;61.86
63556;BME280;49700;48.072;7.800;2022-09-09T02:05:40;99168.09;;;18.32;61.60
63556;BME280;49700;48.072;7.800;2022-09-09T02:08:48;99173.41;;;18.32;61.46
63556;BME280;49700;48.072;7.800;2022-09-09T02:11:20;99162.75;;;18.32;61.47
63556;BME280;49700;48.072;7.800;2022-09-09T02:14:18;99167.25;;;18.32;61.51
63556;BME280;49700;48.072;7.800;2022-09-09T02:16:52;99163.22;;;18.28;61.95
63556;BME280;49700;48.072;7.800;2022-09-09T02:19:31;99161.72;;;18.25;61.98
63556;BME280;49700;48.072;7.800;2022-09-09T02:22:19;99167.34;;;18.22;62.13
63556;BME280;49700;48.072;7.800;2022-09-09T02:24:47;99170.00;;;18.22;61.96
63556;BME280;49700;48.072;7.800;2022-09-09T02:27:22;99171.53;;;18.25;62.23
63556;BME280;49700;48.072;7.800;2022-09-09T02:29:49;99160.06;;;18.24;62.25
63556;BME280;49700;48.072;7.800;2022-09-09T02:32:22;99157.56;;;18.23;62.50
63556;BME280;49700;48.072;7.800;2022-09-09T02:35:15;99165.84;;;18.20;62.77
63556;BME280;49700;48.072;7.800;2022-09-09T02:37:44;99169.34;;;18.20;62.77
63556;BME280;49700;48.072;7.800;2022-09-09T02:40:14;99169.50;;;18.19;62.86
63556;BME280;49700;48.072;7.800;2022-09-09T02:42:50;99167.16;;;18.16;62.87
63556;BME280;49700;48.072;7.800;2022-09-09T02:45:20;99173.63;;;18.13;63.28
63556;BME280;49700;48.072;7.800;2022-09-09T02:50:35;99168.75;;;18.08;63.58
63556;BME280;49700;48.072;7.800;2022-09-09T02:53:16;99173.41;;;18.06;63.84
63556;BME280;49700;48.072;7.800;2022-09-09T02:55:47;99163.41;;;18.00;63.98
63556;BME280;49700;48.072;7.800;2022-09-09T02:58:19;99169.50;;;17.92;64.62
63556;BME280;49700;48.072;7.800;2022-09-09T03:00:53;99168.47;;;17.85;64.97
63556;BME280;49700;48.072;7.800;2022-09-09T03:03:19;99166.25;;;17.81;65.16
63556;BME280;49700;48.072;7.800;2022-09-09T03:05:48;99168.22;;;17.79;65.40
63556;BME280;49700;48.072;7.800;2022-09-09T03:08:14;99172.00;;;17.76;65.28
63556;BME280;49700;48.072;7.800;2022-09-09T03:10:40;99163.06;;;17.77;65.68
63556;BME280;49700;48.072;7.800;2022-09-09T03:13:06;99171.63;;;17.71;65.75
63556;BME280;49700;48.072;7.800;2022-09-09T03:15:35;99173.75;;;17.67;66.03
63556;BME280;49700;48.072;7.800;2022-09-09T03:18:01;99167.63;;;17.67;65.96
63556;BME280;49700;48.072;7.800;2022-09-09T03:20:29;99171.25;;;17.66;66.18
63556;BME280;49700;48.072;7.800;2022-09-09T03:22:56;99171.09;;;17.67;66.07
63556;BME280;49700;48.072;7.800;2022-09-09T03:25:22;99167.63;;;17.67;66.21
63556;BME280;49700;48.072;7.800;2022-09-09T03:27:50;99166.63;;;17.68;66.25
63556;BME280;49700;48.072;7.800;2022-09-09T03:30:20;99165.47;;;17.70;66.38
63556;BME280;49700;48.072;7.800;2022-09-09T03:32:47;99165.03;;;17.75;66.15
63556;BME280;49700;48.072;7.800;2022-09-09T03:35:13;99164.59;;;17.80;66.20
63556;BME280;49700;48.072;7.800;2022-09-09T03:37:39;99157.84;;;17.85;66.14
63556;BME280;49700;48.072;7.800;2022-09-09T03:40:05;99150.38;;;17.89;66.20
63556;BME280;49700;48.072;7.800;2022-09-09T03:42:31;99152.72;;;17.92;66.03
63556;BME280;49700;48.072;7.800;2022-09-09T03:44:58;99142.09;;;17.92;66.07
63556;BME280;49700;48.072;7.800;2022-09-09T03:47:25;99145.88;;;17.89;66.29
63556;BME280;49700;48.072;7.800;2022-09-09T03:49:55;99147.88;;;17.87;66.23
63556;BME280;49700;48.072;7.800;2022-09-09T03:52:21;99147.22;;;17.85;66.64
63556;BME280;49700;48.072;7.800;2022-09-09T03:54:51;99150.84;;;17.84;66.54
63556;BME280;49700;48.072;7.800;2022-09-09T03:57:17;99158.97;;;17.83;66.48
63556;BME280;49700;48.072;7.800;2022-09-09T03:59:43;99163.06;;;17.77;66.62
63556;BME280;49700;48.072;7.800;2022-09-09T04:02:09;99160.03;;;17.72;66.86
63556;BME280;49700;48.072;7.800;2022-09-09T04:04:34;99152.06;;;17.72;67.58
63556;BME280;49700;48.072;7.800;2022-09-09T04:07:00;99154.16;;;17.68;67.71
63556;BME280;49700;48.072;7.800;2022-09-09T04:09:25;99153.66;;;17.65;67.49
63556;BME280;49700;48.072;7.800;2022-09-09T04:11:51;99157.63;;;17.61;67.70
63556;BME280;49700;48.072;7.800;2022-09-09T04:14:18;99147.28;;;17.58;67.44
63556;BME280;49700;48.072;7.800;2022-09-09T04:16:44;99147.59;;;17.55;67.39
63556;BME280;49700;48.072;7.800;2022-09-09T04:19:11;99152.38;;;17.51;67.42
63556;BME280;49700;48.072;7.800;2022-09-09T04:21:41;99154.34;;;17.49;67.30
63556;BME280;49700;48.072;7.800;2022-09-09T04:24:07;99146.38;;;17.49;67.26
63556;BME280;49700;48.072;7.800;2022-09-09T04:26:33;99152.38;;;17.51;67.09
63556;BME280;49700;48.072;7.800;2022-09-09T04:28:59;99152.25;;;17.53;66.82
63556;BME280;49700;48.072;7.800;2022-09-09T04:31:25;99146.06;;;17.52;66.64
63556;BME280;49700;48.072;7.800;2022-09-09T04:33:54;99149.59;;;17.53;66.57
63556;BME280;49700;48.072;7.800;2022-09-09T04:36:20;99161.72;;;17.55;66.53
63556;BME280;49700;48.072;7.800;2022-09-09T04:38:48;99142.97;;;17.57;66.39
63556;BME280;49700;48.072;7.800;2022-09-09T04:41:15;99140.81;;;17.60;66.35
63556;BME280;49700;48.072;7.800;2022-09-09T04:43:43;99146.50;;;17.65;66.19
63556;BME280;49700;48.072;7.800;2022-09-09T04:46:09;99147.72;;;17.71;65.91
63556;BME280;49700;48.072;7.800;2022-09-09T04:48:35;99152.75;;;17.74;65.93
63556;BME280;49700;48.072;7.800;2022-09-09T04:51:07;99153.13;;;17.79;65.73
63556;BME280;49700;48.072;7.800;2022-09-09T04:53:35;99155.19;;;17.85;65.77
63556;BME280;49700;48.072;7.800;2022-09-09T04:56:06;99159.03;;;17.91;65.55
63556;BME280;49700;48.072;7.800;2022-09-09T04:58:36;99161.19;;;17.96;65.38
63556;BME280;49700;48.072;7.800;2022-09-09T05:01:11;99157.25;;;18.00;65.44
63556;BME280;49700;48.072;7.800;2022-09-09T05:03:39;99161.28;;;18.04;65.24
63556;BME280;49700;48.072;7.800;2022-09-09T05:06:09;99165.59;;;18.05;65.13
63556;BME280;49700;48.072;7.800;2022-09-09T05:08:40;99175.41;;;18.04;65.28
63556;BME280;49700;48.072;7.800;2022-09-09T05:11:33;99165.59;;;18.05;65.66
63556;BME280;49700;48.072;7.800;2022-09-09T05:14:09;99170.91;;;18.05;65.54
63556;BME280;49700;48.072;7.800;2022-09-09T05:16:37;99168.25;;;18.05;65.50
63556;BME280;49700;48.072;7.800;2022-09-09T05:19:03;99168.09;;;18.06;65.22
63556;BME280;49700;48.072;7.800;2022-09-09T05:21:38;99167.63;;;18.11;65.17
63556;BME280;49700;48.072;7.800;2022-09-09T05:24:03;99164.00;;;18.12;65.33
63556;BME280;49700;48.072;7.800;2022-09-09T05:26:29;99158.50;;;18.13;65.17
63556;BME280;49700;48.072;7.800;2022-09-09T05:28:56;99166.16;;;18.17;65.42
63556;BME280;49700;48.072;7.800;2022-09-09T05:31:22;99172.47;;;18.16;65.13
63556;BME280;49700;48.072;7.800;2022-09-09T05:33:50;99178.47;;;18.18;65.13
63556;BME280;49700;48.072;7.800;2022-09-09T05:36:18;99173.00;;;18.19;65.25
63556;BME280;49700;48.072;7.800;2022-09-09T05:38:46;99172.66;;;18.22;65.14
63556;BME280;49700;48.072;7.800;2022-09-09T05:41:13;99179.50;;;18.25;65.16
63556;BME280;49700;48.072;7.800;2022-09-09T05:43:43;99166.75;;;18.28;64.76
63556;BME280;49700;48.072;7.800;2022-09-09T05:46:13;99168.91;;;18.33;64.50
63556;BME280;49700;48.072;7.800;2022-09-09T05:48:43;99169.28;;;18.38;64.46
63556;BME280;49700;48.072;7.800;2022-09-09T05:51:14;99167.97;;;18.42;64.43
63556;BME280;49700;48.072;7.800;2022-09-09T05:53:44;99169.16;;;18.48;64.60
63556;BME280;49700;48.072;7.800;2022-09-09T05:56:16;99174.84;;;18.53;64.28
63556;BME280;49700;48.072;7.800;2022-09-09T05:58:43;99178.00;;;18.56;64.06
63556;BME280;49700;48.072;7.800;2022-09-09T06:03:52;99188.91;;;18.71;63.99
63556;BME280;49700;48.072;7.800;2022-09-09T06:06:21;99182.97;;;18.77;63.89
63556;BME280;49700;48.072;7.800;2022-09-09T06:08:49;99181.81;;;18.80;63.71
63556;BME280;49700;48.072;7.800;2022-09-09T06:11:18;99188.31;;;18.86;63.37
63556;BME280;49700;48.072;7.800;2022-09-09T06:13:44;99178.03;;;18.91;63.19
63556;BME280;49700;48.072;7.800;2022-09-09T06:16:13;99176.34;;;18.98;63.01
63556;BME280;49700;48.072;7.800;2022-09-09T06:18:40;99183.72;;;19.04;62.74
63556;BME280;49700;48.072;7.800;2022-09-09T06:21:08;99180.53;;;19.09;63.00
63556;BME280;49700;48.072;7.800;2022-09-09T06:23:35;99189.41;;;19.17;62.75
63556;BME280;49700;48.072;7.800;2022-09-09T06:26:06;99184.25;;;19.24;62.33
63556;BME280;49700;48.072;7.800;2022-09-09T06:28:33;99176.41;;;19.31;62.25
63556;BME280;49700;48.072;7.800;2022-09-09T06:31:00;99176.47;;;19.39;61.88
63556;BME280;49700;48.072;7.800;2022-09-09T06:33:27;99182.09;;;19.52;61.62
63556;BME280;49700;48.072;7.800;2022-09-09T06:35:55;99176.63;;;19.62;61.51
63556;BME280;49700;48.072;7.800;2022-09-09T06:38:22;99174.50;;;19.74;61.19
63556;BME280;49700;48.072;7.800;2022-09-09T06:40:53;99182.81;;;19.87;60.63
63556;BME280;49700;48.072;7.800;2022-09-09T06:43:21;99176.66;;;19.95;60.25
63556;BME280;49700;48.072;7.800;2022-09-09T06:48:20;99185.81;;;20.00;59.76
63556;BME280;49700;48.072;7.800;2022-09-09T06:50:46;99187.97;;;19.97;59.77
63556;BME280;49700;48.072;7.800;2022-09-09T06:53:16;99188.66;;;19.99;59.97
63556;BME280;49700;48.072;7.800;2022-09-09T06:55:42;99186.47;;;20.02;59.87
63556;BME280;49700;48.072;7.800;2022-09-09T06:58:09;99186.47;;;20.10;59.73
63556;BME280;49700;48.072;7.800;2022-09-09T07:00:35;99187.13;;;20.21;59.64
63556;BME280;49700;48.072;7.800;2022-09-09T07:03:03;99197.56;;;20.30;59.45
63556;BME280;49700;48.072;7.800;2022-09-09T07:05:28;99198.56;;;20.38;59.10
63556;BME280;49700;48.072;7.800;2022-09-09T07:07:54;99192.53;;;20.44;59.21
63556;BME280;49700;48.072;7.800;2022-09-09T07:10:20;99196.34;;;20.49;58.78
63556;BME280;49700;48.072;7.800;2022-09-09T07:12:50;99187.88;;;20.54;58.50
63556;BME280;49700;48.072;7.800;2022-09-09T07:15:16;99206.53;;;20.62;58.12
63556;BME280;49700;48.072;7.800;2022-09-09T07:17:44;99203.84;;;20.70;57.64
63556;BME280;49700;48.072;7.800;2022-09-09T07:22:45;99203.59;;;20.88;57.09
63556;BME280;49700;48.072;7.800;2022-09-09T07:25:11;99215.78;;;20.91;56.37
63556;BME280;49700;48.072;7.800;2022-09-09T07:27:36;99205.91;;;20.91;56.38
63556;BME280;49700;48.072;7.800;2022-09-09T07:30:04;99207.25;;;20.95;56.57
63556;BME280;49700;48.072;7.800;2022-09-09T07:32:31;99207.63;;;21.15;56.18
63556;BME280;49700;48.072;7.800;2022-09-09T07:34:56;99208.06;;;21.58;54.92
63556;BME280;49700;48.072;7.800;2022-09-09T07:37:23;99207.34;;;21.87;54.04
63556;BME280;49700;48.072;7.800;2022-09-09T07:39:50;99200.97;;;21.88;53.74
63556;BME280;49700;48.072;7.800;2022-09-09T07:42:17;99214.34;;;21.88;53.37
63556;BME280;49700;48.072;7.800;2022-09-09T07:44:42;99206.84;;;21.84;53.28
63556;BME280;49700;48.072;7.800;2022-09-09T07:47:11;99214.84;;;21.69;53.44
63556;BME280;49700;48.072;7.800;2022-09-09T07:49:48;99217.69;;;21.91;52.78
63556;BME280;49700;48.072;7.800;2022-09-09T07:52:19;99223.13;;;22.20;51.87
63556;BME280;49700;48.072;7.800;2022-09-09T07:54:45;99212.19;;;22.07;52.10
63556;BME280;49700;48.072;7.800;2022-09-09T07:57:12;99211.97;;;21.94;52.33
63556;BME280;49700;48.072;7.800;2022-09-09T07:59:38;99224.56;;;21.85;52.74
63556;BME280;49700;48.072;7.800;2022-09-09T08:02:04;99219.47;;;21.75;53.00
63556;BME280;49700;48.072;7.800;2022-09-09T08:04:33;99222.66;;;21.71;53.35
63556;BME280;49700;48.072;7.800;2022-09-09T08:07:00;99228.44;;;21.59;53.54
63556;BME280;49700;48.072;7.800;2022-09-09T08:09:32;99218.56;;;21.60;53.64
63556;BME280;49700;48.072;7.800;2022-09-09T08:12:24;99221.47;;;21.96;52.79
63556;BME280;49700;48.072;7.800;2022-09-09T08:14:50;99216.59;;;22.82;50.69
63556;BME280;49700;48.072;7.800;2022-09-09T08:17:17;99216.47;;;23.78;48.11
63556;BME280;49700;48.072;7.800;2022-09-09T08:19:43;99209.66;;;24.60;46.34
63556;BME280;49700;48.072;7.800;2022-09-09T08:22:14;99204.81;;;25.31;44.71
63556;BME280;49700;48.072;7.800;2022-09-09T08:24:40;99201.59;;;25.82;42.91
63556;BME280;49700;48.072;7.800;2022-09-09T08:27:07;99203.69;;;26.20;42.20
63556;BME280;49700;48.072;7.800;2022-09-09T08:29:32;99204.66;;;26.59;41.17
63556;BME280;49700;48.072;7.800;2022-09-09T08:31:58;99207.13;;;26.67;41.10
63556;BME280;49700;48.072;7.800;2022-09-09T08:34:26;99206.22;;;26.93;40.41
63556;BME280;49700;48.072;7.800;2022-09-09T08:36:53;99200.31;;;27.23;39.53
63556;BME280;49700;48.072;7.800;2022-09-09T08:39:23;99206.81;;;27.41;39.36
63556;BME280;49700;48.072;7.800;2022-09-09T08:44:50;99200.97;;;27.50;38.66
63556;BME280;49700;48.072;7.800;2022-09-09T08:50:23;99199.06;;;27.19;39.09
63556;BME280;49700;48.072;7.800;2022-09-09T08:56:01;99200.81;;;26.93;39.51
63556;BME280;49700;48.072;7.800;2022-09-09T08:58:50;99220.75;;;26.86;39.63
63556;BME280;49700;48.072;7.800;2022-09-09T09:07:46;99213.38;;;25.81;39.98
63556;BME280;49700;48.072;7.800;2022-09-09T09:12:56;99217.53;;;25.71;40.49
63556;BME280;49700;48.072;7.800;2022-09-09T09:15:30;99215.44;;;25.66;39.95
63556;BME280;49700;48.072;7.800;2022-09-09T09:18:03;99213.31;;;25.35;40.22
63556;BME280;49700;48.072;7.800;2022-09-09T09:20:40;99211.06;;;24.97;41.09
63556;BME280;49700;48.072;7.800;2022-09-09T09:23:16;99213.22;;;24.67;41.91
63556;BME280;49700;48.072;7.800;2022-09-09T09:25:46;99205.88;;;24.47;42.28
63556;BME280;49700;48.072;7.800;2022-09-09T09:28:16;99210.59;;;24.17;42.40
63556;BME280;49700;48.072;7.800;2022-09-09T09:31:04;99216.59;;;23.91;42.92
63556;BME280;49700;48.072;7.800;2022-09-09T09:36:07;99217.72;;;24.03;43.07
63556;BME280;49700;48.072;7.800;2022-09-09T09:38:36;99208.28;;;24.42;42.03
63556;BME280;49700;48.072;7.800;2022-09-09T09:41:03;99204.34;;;24.73;41.10
63556;BME280;49700;48.072;7.800;2022-09-09T09:43:31;99204.00;;;24.89;40.25
63556;BME280;49700;48.072;7.800;2022-09-09T09:46:00;99195.06;;;24.69;40.18
63556;BME280;49700;48.072;7.800;2022-09-09T09:48:27;99191.47;;;24.55;40.63
63556;BME280;49700;48.072;7.800;2022-09-09T09:50:56;99195.16;;;24.54;40.71
63556;BME280;49700;48.072;7.800;2022-09-09T09:53:28;99188.81;;;24.62;40.29
63556;BME280;49700;48.072;7.800;2022-09-09T09:56:15;99187.22;;;24.74;40.21
63556;BME280;49700;48.072;7.800;2022-09-09T10:01:26;99185.78;;;25.26;38.96
63556;BME280;49700;48.072;7.800;2022-09-09T10:03:57;99187.28;;;25.42;38.46
63556;BME280;49700;48.072;7.800;2022-09-09T10:06:34;99183.59;;;25.63;38.46
63556;BME280;49700;48.072;7.800;2022-09-09T10:09:01;99191.25;;;25.79;37.92
63556;BME280;49700;48.072;7.800;2022-09-09T10:14:57;99174.69;;;25.82;36.22
63556;BME280;49700;48.072;7.800;2022-09-09T10:22:35;99183.59;;;25.76;34.86
63556;BME280;49700;48.072;7.800;2022-09-09T10:31:27;99188.47;;;24.78;37.24
63556;BME280;49700;48.072;7.800;2022-09-09T10:36:35;99182.88;;;24.73;37.81
63556;BME280;49700;48.072;7.800;2022-09-09T10:39:13;99185.88;;;24.57;38.13
63556;BME280;49700;48.072;7.800;2022-09-09T10:55:35;99190.41;;;24.98;36.73
63556;BME280;49700;48.072;7.800;2022-09-09T10:58:03;99201.53;;;24.88;36.57
63556;BME280;49700;48.072;7.800;2022-09-09T11:00:41;99209.50;;;24.68;37.15
63556;BME280;49700;48.072;7.800;2022-09-09T11:03:18;99208.28;;;24.42;37.82
63556;BME280;49700;48.072;7.800;2022-09-09T11:05:55;99210.22;;;24.20;38.84
63556;BME280;49700;48.072;7.800;2022-09-09T11:08:25;99217.94;;;24.08;39.21
63556;BME280;49700;48.072;7.800;2022-09-09T11:11:04;99215.47;;;24.07;38.86
63556;BME280;49700;48.072;7.800;2022-09-09T11:13:37;99219.38;;;24.04;38.72
63556;BME280;49700;48.072;7.800;2022-09-09T11:18:38;99226.75;;;23.96;39.49
63556;BME280;49700;48.072;7.800;2022-09-09T11:21:14;99220.03;;;23.85;39.44
63556;BME280;49700;48.072;7.800;2022-09-09T11:23:47;99226.94;;;23.73;39.81
63556;BME280;49700;48.072;7.800;2022-09-09T11:26:21;99231.56;;;23.64;39.85
63556;BME280;49700;48.072;7.800;2022-09-09T11:44:39;99204.38;;;24.17;40.62
63556;BME280;49700;48.072;7.800;2022-09-09T11:47:25;99216.97;;;24.16;40.89
63556;BME280;49700;48.072;7.800;2022-09-09T11:49:55;99207.72;;;24.19;40.85
63556;BME280;49700;48.072;7.800;2022-09-09T11:52:41;99215.00;;;24.25;39.66
63556;BME280;49700;48.072;7.800;2022-09-09T11:55:34;99206.19;;;24.38;39.72
63556;BME280;49700;48.072;7.800;2022-09-09T11:58:04;99217.38;;;24.41;39.72
63556;BME280;49700;48.072;7.800;2022-09-09T12:00:36;99206.44;;;24.43;39.35
63556;BME280;49700;48.072;7.800;2022-09-09T12:03:03;99212.38;;;24.38;38.63
63556;BME280;49700;48.072;7.800;2022-09-09T12:05:45;99212.00;;;24.41;38.18
63556;BME280;49700;48.072;7.800;2022-09-09T12:08:16;99205.72;;;24.56;37.45
63556;BME280;49700;48.072;7.800;2022-09-09T12:10:54;99205.56;;;24.70;36.75
63556;BME280;49700;48.072;7.800;2022-09-09T12:13:23;99203.13;;;24.76;36.46
63556;BME280;49700;48.072;7.800;2022-09-09T12:15:51;99204.34;;;24.73;36.58
63556;BME280;49700;48.072;7.800;2022-09-09T12:18:23;99211.59;;;24.72;36.60
63556;BME280;49700;48.072;7.800;2022-09-09T12:21:17;99197.75;;;24.69;36.59
63556;BME280;49700;48.072;7.800;2022-09-09T12:23:52;99196.06;;;24.68;36.94
63556;BME280;49700;48.072;7.800;2022-09-09T12:26:34;99191.97;;;24.79;36.76
63556;BME280;49700;48.072;7.800;2022-09-09T12:29:19;99198.25;;;24.92;35.90
63556;BME280;49700;48.072;7.800;2022-09-09T12:32:05;99204.47;;;25.00;35.86
63556;BME280;49700;48.072;7.800;2022-09-09T12:34:38;99193.09;;;24.98;35.87
63556;BME280;49700;48.072;7.800;2022-09-09T12:37:31;99200.50;;;24.82;36.08
63556;BME280;49700;48.072;7.800;2022-09-09T12:40:00;99203.06;;;24.62;36.74
63556;BME280;49700;48.072;7.800;2022-09-09T12:42:27;99206.69;;;24.48;37.18
63556;BME280;49700;48.072;7.800;2022-09-09T12:44:57;99192.75;;;24.38;37.05
63556;BME280;49700;48.072;7.800;2022-09-09T12:47:39;99196.59;;;24.22;36.30
63556;BME280;49700;48.072;7.800;2022-09-09T12:50:28;99190.75;;;24.12;36.91
63556;BME280;49700;48.072;7.800;2022-09-09T12:52:57;99196.47;;;24.08;36.82
63556;BME280;49700;48.072;7.800;2022-09-09T12:55:32;99183.69;;;24.04;36.95
63556;BME280;49700;48.072;7.800;2022-09-09T12:58:04;99183.59;;;23.97;37.29
63556;BME280;49700;48.072;7.800;2022-09-09T13:00:32;99184.56;;;23.90;37.57
63556;BME280;49700;48.072;7.800;2022-09-09T13:03:00;99191.94;;;23.81;37.85
63556;BME280;49700;48.072;7.800;2022-09-09T13:05:36;99182.53;;;23.70;37.95
63556;BME280;49700;48.072;7.800;2022-09-09T13:08:04;99194.03;;;23.64;38.26
63556;BME280;49700;48.072;7.800;2022-09-09T13:10:36;99185.28;;;23.55;38.78
63556;BME280;49700;48.072;7.800;2022-09-09T13:13:13;99191.22;;;23.51;39.06
63556;BME280;49700;48.072;7.800;2022-09-09T13:15:39;99190.66;;;23.55;38.95
63556;BME280;49700;48.072;7.800;2022-09-09T13:18:10;99176.34;;;23.70;39.11
63556;BME280;49700;48.072;7.800;2022-09-09T13:20:46;99168.69;;;23.88;38.97
63556;BME280;49700;48.072;7.800;2022-09-09T13:23:12;99185.84;;;23.94;39.28
63556;BME280;49700;48.072;7.800;2022-09-09T13:25:38;99182.34;;;23.93;39.64
63556;BME280;49700;48.072;7.800;2022-09-09T13:28:05;99173.41;;;23.86;39.82
63556;BME280;49700;48.072;7.800;2022-09-09T13:30:37;99176.50;;;23.83;40.16
63556;BME280;49700;48.072;7.800;2022-09-09T13:35:56;99173.66;;;23.70;41.53
63556;BME280;49700;48.072;7.800;2022-09-09T13:38:23;99187.75;;;23.57;41.76
63556;BME280;49700;48.072;7.800;2022-09-09T13:43:24;99183.56;;;23.26;42.81
63556;BME280;49700;48.072;7.800;2022-09-09T13:45:59;99176.56;;;23.10;44.04
63556;BME280;49700;48.072;7.800;2022-09-09T13:48:25;99170.75;;;22.92;44.82
63556;BME280;49700;48.072;7.800;2022-09-09T13:51:04;99176.97;;;22.78;45.57
63556;BME280;49700;48.072;7.800;2022-09-09T13:53:32;99179.75;;;22.69;46.49
63556;BME280;49700;48.072;7.800;2022-09-09T13:55:58;99182.53;;;22.61;47.19
63556;BME280;49700;48.072;7.800;2022-09-09T13:58:25;99175.88;;;22.57;48.03
63556;BME280;49700;48.072;7.800;2022-09-09T14:00:52;99173.84;;;22.59;48.39
63556;BME280;49700;48.072;7.800;2022-09-09T14:03:19;99173.75;;;22.67;48.50
63556;BME280;49700;48.072;7.800;2022-09-09T14:05:45;99178.44;;;22.80;47.34
63556;BME280;49700;48.072;7.800;2022-09-09T14:08:19;99176.13;;;22.92;46.47
63556;BME280;49700;48.072;7.800;2022-09-09T14:10:46;99179.19;;;23.04;45.87
63556;BME280;49700;48.072;7.800;2022-09-09T14:13:11;99171.66;;;23.14;45.41
63556;BME280;49700;48.072;7.800;2022-09-09T14:15:38;99180.50;;;23.29;45.16
63556;BME280;49700;48.072;7.800;2022-09-09T14:18:03;99188.50;;;23.44;44.57
63556;BME280;49700;48.072;7.800;2022-09-09T14:20:29;99181.56;;;23.56;43.80
63556;BME280;49700;48.072;7.800;2022-09-09T14:22:54;99193.84;;;23.66;43.47
63556;BME280;49700;48.072;7.800;2022-09-09T14:25:19;99185.06;;;23.72;43.22
63556;BME280;49700;48.072;7.800;2022-09-09T14:27:45;99178.13;;;23.84;43.31
63556;BME280;49700;48.072;7.800;2022-09-09T14:30:11;99183.09;;;23.87;42.92
63556;BME280;49700;48.072;7.800;2022-09-09T14:32:37;99183.75;;;23.89;43.44
63556;BME280;49700;48.072;7.800;2022-09-09T14:35:03;99188.25;;;23.82;43.47
63556;BME280;49700;48.072;7.800;2022-09-09T14:37:28;99184.03;;;23.73;43.97
63556;BME280;49700;48.072;7.800;2022-09-09T14:39:56;99178.00;;;23.71;43.77
63556;BME280;49700;48.072;7.800;2022-09-09T14:42:21;99175.16;;;23.72;43.66
63556;BME280;49700;48.072;7.800;2022-09-09T14:44:47;99173.22;;;23.66;42.93
63556;BME280;49700;48.072;7.800;2022-09-09T14:47:13;99170.84;;;23.56;42.60
63556;BME280;49700;48.072;7.800;2022-09-09T14:49:38;99176.16;;;23.50;42.95
63556;BME280;49700;48.072;7.800;2022-09-09T14:52:04;99181.28;;;23.45;42.79
63556;BME280;49700;48.072;7.800;2022-09-09T14:54:31;99176.84;;;23.37;42.53
63556;BME280;49700;48.072;7.800;2022-09-09T14:56:57;99175.94;;;23.30;42.11
63556;BME280;49700;48.072;7.800;2022-09-09T14:59:23;99181.31;;;23.30;41.90
63556;BME280;49700;48.072;7.800;2022-09-09T15:01:48;99179.84;;;23.27;41.13
63556;BME280;49700;48.072;7.800;2022-09-09T15:04:14;99178.63;;;23.30;41.16
63556;BME280;49700;48.072;7.800;2022-09-09T15:06:40;99180.69;;;23.28;40.82
63556;BME280;49700;48.072;7.800;2022-09-09T15:09:08;99169.31;;;23.26;41.20
63556;BME280;49700;48.072;7.800;2022-09-09T15:11:35;99175.94;;;23.30;41.34
63556;BME280;49700;48.072;7.800;2022-09-09T15:14:03;99167.16;;;23.36;41.63
63556;BME280;49700;48.072;7.800;2022-09-09T15:16:29;99170.97;;;23.48;41.22